Laguepe — 9HAI9 — position and weather

sailwx.info

Track history (hours):
 
Tides and Currents Weather Stations Pressure Air Temp Water Temp Dewpoint Dewpoint Depression Visibility Wind Speed Wind Dir Waves Ship Positions

Laguepe

Last reported at 2018-Apr-21 08:06 UTC. Time now 2018-Apr-23 21:15 UTC.
Position N 43°26' E 004°44'.

Length 81 m; draft 2.8 m.

Type: Cargo ship. MMSI: 256681000.

Date/timePositionNaut miles runAvg speedWind from/ knotsBaromVisibWave heightAir tempDewpointWater temp
2018-Apr-21 08:06N 43°26' E 004°44'1 7.1
2018-Apr-21 08:00N 43°25' E 004°45'4 6.9
2018-Apr-21 07:29N 43°23' E 004°48'0 0.3
2018-Apr-21 07:00N 43°23' E 004°49'1 1.6
2018-Apr-21 06:30N 43°23' E 004°50'4 7.4
2018-Apr-21 06:00N 43°24' E 004°55'3 7.0
2018-Apr-21 05:30N 43°22' E 004°59'3 5.2
2018-Apr-21 05:00N 43°19' E 004°60'3 5.5
2018-Apr-21 04:30N 43°17' E 005°02'3 5.4
2018-Apr-21 03:58N 43°15' E 005°05'3 5.8
2018-Apr-21 03:25N 43°13' E 005°08'2 0.9
2018-Apr-21 01:10N 43°14' E 005°05'1 4.0
2018-Apr-21 00:58N 43°14' E 005°06'3 5.7
2018-Apr-21 00:27N 43°12' E 005°09'80 4.6
2018-Apr-20 07:11N 43°14' E 006°59'2 6.5
2018-Apr-20 06:56N 43°15' E 007°00'3 6.7
2018-Apr-20 06:30N 43°16' E 007°04'3 6.6
2018-Apr-20 06:00N 43°18' E 007°07'3 6.9
2018-Apr-20 05:30N 43°21' E 007°09'3 6.9
2018-Apr-20 05:00N 43°24' E 007°12'3 6.7
2018-Apr-20 04:30N 43°26' E 007°16'3 6.3
2018-Apr-20 04:00N 43°28' E 007°19'6 6.5
2018-Apr-20 03:05N 43°31' E 007°27'2 7.3
2018-Apr-20 02:48N 43°31' E 007°29'46 6.9
2018-Apr-19 20:06N 44°00' E 008°19'1 6.9
2018-Apr-19 20:00N 44°01' E 008°20'3 6.8
2018-Apr-19 19:30N 44°03' E 008°23'3 6.7
2018-Apr-19 19:00N 44°06' E 008°25'3 7.0
2018-Apr-19 18:30N 44°09' E 008°28'3 6.8
2018-Apr-19 18:00N 44°12' E 008°30'4 7.6
2018-Apr-19 17:30N 44°16' E 008°31'3 6.6
2018-Apr-19 17:00N 44°19' E 008°30'0 0.3
2018-Apr-19 16:27N 44°19' E 008°30'0 0.0
2018-Apr-19 15:57N 44°19' E 008°30'0 0.0
2018-Apr-19 15:27N 44°19' E 008°30'0 0.0
2018-Apr-19 14:57N 44°19' E 008°30'0 0.0
2018-Apr-19 14:27N 44°19' E 008°30'0 0.0
2018-Apr-19 13:57N 44°19' E 008°30'0 0.0
2018-Apr-19 13:27N 44°19' E 008°30'0 0.0
2018-Apr-19 12:57N 44°19' E 008°30'0 0.0
2018-Apr-19 12:27N 44°19' E 008°30'0 0.0
2018-Apr-19 11:57N 44°19' E 008°30'0 0.0
2018-Apr-19 11:27N 44°19' E 008°30'0 0.0
2018-Apr-19 10:57N 44°19' E 008°30'0 0.0
2018-Apr-19 10:27N 44°19' E 008°30'0 0.0
2018-Apr-19 09:57N 44°19' E 008°30'0 0.0
2018-Apr-19 09:27N 44°19' E 008°30'0 0.0
2018-Apr-19 08:57N 44°19' E 008°30'0 0.0
2018-Apr-19 08:27N 44°19' E 008°30'1 2.1
2018-Apr-19 08:00N 44°19' E 008°31'4 8.1
2018-Apr-19 07:30N 44°15' E 008°33'3 5.5
2018-Apr-19 07:00N 44°12' E 008°35'0 0.4
2018-Apr-19 06:30N 44°12' E 008°35'1 1.1
2018-Apr-19 06:00N 44°13' E 008°35'0 0.8
2018-Apr-19 05:30N 44°13' E 008°34'0 0.9
2018-Apr-19 05:00N 44°13' E 008°34'0 0.8
2018-Apr-19 04:30N 44°14' E 008°34'0 0.5
2018-Apr-19 04:00N 44°14' E 008°34'0 0.3
2018-Apr-19 03:30N 44°14' E 008°34'0 0.2
2018-Apr-19 03:00N 44°14' E 008°34'0 0.1
2018-Apr-19 02:30N 44°14' E 008°34'0 0.2
2018-Apr-19 02:00N 44°14' E 008°34'0 0.5
2018-Apr-19 01:30N 44°14' E 008°34'0 0.4
2018-Apr-19 01:00N 44°15' E 008°35'0 0.9
2018-Apr-19 00:30N 44°14' E 008°34'3 5.1
2018-Apr-19 00:00N 44°12' E 008°32'0 0.3
2018-Apr-18 23:30N 44°12' E 008°32'0 0.7
2018-Apr-18 23:00N 44°12' E 008°33'0 0.7
2018-Apr-18 22:30N 44°13' E 008°33'0 0.6
2018-Apr-18 22:00N 44°13' E 008°33'0 0.7
2018-Apr-18 21:30N 44°13' E 008°34'0 0.4
2018-Apr-18 21:00N 44°13' E 008°34'2 4.5
2018-Apr-18 20:30N 44°11' E 008°33'4 7.5
2018-Apr-18 20:00N 44°08' E 008°30'4 7.7
2018-Apr-18 19:30N 44°05' E 008°27'4 8.1
2018-Apr-18 19:00N 44°02' E 008°23'5 8.8
2018-Apr-18 18:28N 43°58' E 008°18'4 8.8
2018-Apr-18 18:00N 43°55' E 008°15'45 8.0
2018-Apr-18 12:26N 43°24' E 007°31'5 8.5
2018-Apr-18 11:50N 43°21' E 007°25'4 8.6
2018-Apr-18 11:18N 43°18' E 007°21'3 8.4
2018-Apr-18 11:00N 43°16' E 007°18'5 8.0
2018-Apr-18 10:25N 43°13' E 007°14'6 6.7
2018-Apr-18 09:33N 43°09' E 007°08'0 7.1
2018-Apr-18 09:29N 43°09' E 007°07'4 7.3
2018-Apr-18 08:58N 43°11' E 007°02'86 4.8
2018-Apr-17 15:06N 43°15' E 005°05'1 6.0
2018-Apr-17 14:59N 43°15' E 005°04'3 5.9
2018-Apr-17 14:29N 43°17' E 005°01'3 5.8
2018-Apr-17 14:00N 43°19' E 004°59'3 5.8
2018-Apr-17 13:30N 43°22' E 004°58'3 6.6
2018-Apr-17 12:59N 43°24' E 004°54'4 7.7
2018-Apr-17 12:30N 43°23' E 004°48'0 0.5
2018-Apr-17 12:00N 43°23' E 004°49'0 0.2
2018-Apr-17 11:30N 43°23' E 004°48'0 0.0
2018-Apr-17 11:00N 43°23' E 004°48'0 0.0
2018-Apr-17 10:30N 43°23' E 004°48'4 7.4
2018-Apr-17 10:00N 43°25' E 004°45'4 9.0
2018-Apr-17 09:30N 43°30' E 004°44'  
2018-Apr-14 16:11N 43°26' E 004°44'1 6.4
2018-Apr-14 16:00N 43°25' E 004°45'3 5.9
2018-Apr-14 15:27N 43°23' E 004°49'0 0.7
2018-Apr-14 15:00N 43°23' E 004°48'4 7.2
2018-Apr-14 14:30N 43°24' E 004°53'4 7.5
2018-Apr-14 14:00N 43°22' E 004°58'3 5.9
2018-Apr-14 13:30N 43°19' E 004°60'3 6.5
2018-Apr-14 12:59N 43°17' E 005°02'5 6.4
2018-Apr-14 12:17N 43°14' E 005°07'3 6.6
2018-Apr-14 11:49N 43°11' E 005°10'81 8.0
2018-Apr-14 01:42N 43°14' E 007°01'2 9.1
2018-Apr-14 01:30N 43°15' E 007°03'4 8.8
2018-Apr-14 01:00N 43°18' E 007°08'4 8.7
2018-Apr-14 00:30N 43°21' E 007°12'5 9.1
2018-Apr-14 00:00N 43°24' E 007°16'5 9.6
2018-Apr-13 23:30N 43°27' E 007°22'6 9.9
2018-Apr-13 22:53N 43°30' E 007°28'51 9.5
2018-Apr-13 17:29N 44°04' E 008°22'4 8.6
2018-Apr-13 17:00N 44°07' E 008°26'4 8.9
2018-Apr-13 16:30N 44°10' E 008°30'4 8.5
2018-Apr-13 16:00N 44°15' E 008°31'4 8.3
2018-Apr-13 15:30N 44°19' E 008°31'1 0.3
2018-Apr-13 13:31N 44°19' E 008°30'0 0.0
2018-Apr-13 12:31N 44°19' E 008°30'0 0.0
2018-Apr-13 11:55N 44°19' E 008°30'0 0.0
2018-Apr-13 11:01N 44°19' E 008°30'0 0.0
2018-Apr-13 09:55N 44°19' E 008°30'0 0.0
2018-Apr-13 09:01N 44°19' E 008°30'0 0.0
2018-Apr-13 08:31N 44°19' E 008°30'0 0.0
2018-Apr-13 08:01N 44°19' E 008°30'0 0.0
2018-Apr-13 07:31N 44°19' E 008°30'0 0.0
2018-Apr-13 06:55N 44°19' E 008°30'0 0.0
2018-Apr-13 06:31N 44°19' E 008°30'0 0.0
2018-Apr-13 05:55N 44°19' E 008°30'0 0.0
2018-Apr-13 05:31N 44°19' E 008°30'0 0.0
2018-Apr-13 05:01N 44°19' E 008°30'0 0.0
2018-Apr-13 04:26N 44°19' E 008°30'1 1.7
2018-Apr-13 04:00N 44°19' E 008°31'2 4.4
2018-Apr-13 03:30N 44°17' E 008°31'3 5.4
2018-Apr-13 03:00N 44°14' E 008°31'2 4.2
2018-Apr-13 02:30N 44°12' E 008°31'2 4.0
2018-Apr-13 02:00N 44°10' E 008°30'2 4.0
2018-Apr-13 01:30N 44°08' E 008°28'2 3.7
2018-Apr-13 00:56N 44°07' E 008°26'2 4.2
2018-Apr-13 00:30N 44°05' E 008°25'2 4.6
2018-Apr-13 00:00N 44°04' E 008°23'53 4.5
2018-Apr-12 12:23N 43°34' E 007°23'3 6.1
2018-Apr-12 11:55N 43°31' E 007°21'4 6.6
2018-Apr-12 11:23N 43°28' E 007°19'5 7.1
2018-Apr-12 10:39N 43°23' E 007°16'1 7.0
2018-Apr-12 10:30N 43°22' E 007°16'3 5.9
2018-Apr-12 10:00N 43°20' E 007°13'3 5.4
2018-Apr-12 09:27N 43°19' E 007°09'3 6.1
2018-Apr-12 09:00N 43°17' E 007°06'3 6.2
2018-Apr-12 08:30N 43°15' E 007°03'88 5.3
2018-Apr-11 15:53N 43°17' E 005°02'2 5.3
2018-Apr-11 15:30N 43°18' E 005°00'2 4.9
2018-Apr-11 15:00N 43°20' E 004°58'3 5.7
2018-Apr-11 14:30N 43°23' E 004°57'3 5.9
2018-Apr-11 14:00N 43°24' E 004°53'3 5.7
2018-Apr-11 13:27N 43°23' E 004°49'0 0.1
2018-Apr-11 12:58N 43°23' E 004°48'0 0.1
2018-Apr-11 12:28N 43°23' E 004°48'0 0.0
2018-Apr-11 11:58N 43°23' E 004°48'0 0.0
2018-Apr-11 11:26N 43°23' E 004°48'0 0.0
2018-Apr-11 10:49N 43°23' E 004°48'0 0.0
2018-Apr-11 10:30N 43°23' E 004°48'0 0.0
2018-Apr-11 10:00N 43°23' E 004°48'0 0.2
2018-Apr-11 09:22N 43°23' E 004°49'3 8.0
2018-Apr-11 08:57N 43°25' E 004°45'4 9.1
2018-Apr-11 08:29N 43°29' E 004°45'  
Track history (hours):
 
Tides and Currents Weather Stations Pressure Air Temp Water Temp Dewpoint Dewpoint Depression Visibility Wind Speed Wind Dir Waves Ship Positions

Laguepe

Last reported at 2018-Apr-21 08:06 UTC. Time now 2018-Apr-23 21:15 UTC.
Position N 43°26' E 004°44'.

Length 81 m; draft 2.8 m.

Type: Cargo ship. MMSI: 256681000.

Date/timePositionNaut miles runAvg speedWind from/ knotsBaromVisibWave heightAir tempDewpointWater temp
2018-Apr-21 08:06N 43°26' E 004°44'1 7.1
2018-Apr-21 08:00N 43°25' E 004°45'4 6.9
2018-Apr-21 07:29N 43°23' E 004°48'0 0.3
2018-Apr-21 07:00N 43°23' E 004°49'1 1.6
2018-Apr-21 06:30N 43°23' E 004°50'4 7.4
2018-Apr-21 06:00N 43°24' E 004°55'3 7.0
2018-Apr-21 05:30N 43°22' E 004°59'3 5.2
2018-Apr-21 05:00N 43°19' E 004°60'3 5.5
2018-Apr-21 04:30N 43°17' E 005°02'3 5.4
2018-Apr-21 03:58N 43°15' E 005°05'3 5.8
2018-Apr-21 03:25N 43°13' E 005°08'2 0.9
2018-Apr-21 01:10N 43°14' E 005°05'1 4.0
2018-Apr-21 00:58N 43°14' E 005°06'3 5.7
2018-Apr-21 00:27N 43°12' E 005°09'80 4.6
2018-Apr-20 07:11N 43°14' E 006°59'2 6.5
2018-Apr-20 06:56N 43°15' E 007°00'3 6.7
2018-Apr-20 06:30N 43°16' E 007°04'3 6.6
2018-Apr-20 06:00N 43°18' E 007°07'3 6.9
2018-Apr-20 05:30N 43°21' E 007°09'3 6.9
2018-Apr-20 05:00N 43°24' E 007°12'3 6.7
2018-Apr-20 04:30N 43°26' E 007°16'3 6.3
2018-Apr-20 04:00N 43°28' E 007°19'6 6.5
2018-Apr-20 03:05N 43°31' E 007°27'2 7.3
2018-Apr-20 02:48N 43°31' E 007°29'46 6.9
2018-Apr-19 20:06N 44°00' E 008°19'1 6.9
2018-Apr-19 20:00N 44°01' E 008°20'3 6.8
2018-Apr-19 19:30N 44°03' E 008°23'3 6.7
2018-Apr-19 19:00N 44°06' E 008°25'3 7.0
2018-Apr-19 18:30N 44°09' E 008°28'3 6.8
2018-Apr-19 18:00N 44°12' E 008°30'4 7.6
2018-Apr-19 17:30N 44°16' E 008°31'3 6.6
2018-Apr-19 17:00N 44°19' E 008°30'0 0.3
2018-Apr-19 16:27N 44°19' E 008°30'0 0.0
2018-Apr-19 15:57N 44°19' E 008°30'0 0.0
2018-Apr-19 15:27N 44°19' E 008°30'0 0.0
2018-Apr-19 14:57N 44°19' E 008°30'0 0.0
2018-Apr-19 14:27N 44°19' E 008°30'0 0.0
2018-Apr-19 13:57N 44°19' E 008°30'0 0.0
2018-Apr-19 13:27N 44°19' E 008°30'0 0.0
2018-Apr-19 12:57N 44°19' E 008°30'0 0.0
2018-Apr-19 12:27N 44°19' E 008°30'0 0.0
2018-Apr-19 11:57N 44°19' E 008°30'0 0.0
2018-Apr-19 11:27N 44°19' E 008°30'0 0.0
2018-Apr-19 10:57N 44°19' E 008°30'0 0.0
2018-Apr-19 10:27N 44°19' E 008°30'0 0.0
2018-Apr-19 09:57N 44°19' E 008°30'0 0.0
2018-Apr-19 09:27N 44°19' E 008°30'0 0.0
2018-Apr-19 08:57N 44°19' E 008°30'0 0.0
2018-Apr-19 08:27N 44°19' E 008°30'1 2.1
2018-Apr-19 08:00N 44°19' E 008°31'4 8.1
2018-Apr-19 07:30N 44°15' E 008°33'3 5.5
2018-Apr-19 07:00N 44°12' E 008°35'0 0.4
2018-Apr-19 06:30N 44°12' E 008°35'1 1.1
2018-Apr-19 06:00N 44°13' E 008°35'0 0.8
2018-Apr-19 05:30N 44°13' E 008°34'0 0.9
2018-Apr-19 05:00N 44°13' E 008°34'0 0.8
2018-Apr-19 04:30N 44°14' E 008°34'0 0.5
2018-Apr-19 04:00N 44°14' E 008°34'0 0.3
2018-Apr-19 03:30N 44°14' E 008°34'0 0.2
2018-Apr-19 03:00N 44°14' E 008°34'0 0.1
2018-Apr-19 02:30N 44°14' E 008°34'0 0.2
2018-Apr-19 02:00N 44°14' E 008°34'0 0.5
2018-Apr-19 01:30N 44°14' E 008°34'0 0.4
2018-Apr-19 01:00N 44°15' E 008°35'0 0.9
2018-Apr-19 00:30N 44°14' E 008°34'3 5.1
2018-Apr-19 00:00N 44°12' E 008°32'0 0.3
2018-Apr-18 23:30N 44°12' E 008°32'0 0.7
2018-Apr-18 23:00N 44°12' E 008°33'0 0.7
2018-Apr-18 22:30N 44°13' E 008°33'0 0.6
2018-Apr-18 22:00N 44°13' E 008°33'0 0.7
2018-Apr-18 21:30N 44°13' E 008°34'0 0.4
2018-Apr-18 21:00N 44°13' E 008°34'2 4.5
2018-Apr-18 20:30N 44°11' E 008°33'4 7.5
2018-Apr-18 20:00N 44°08' E 008°30'4 7.7
2018-Apr-18 19:30N 44°05' E 008°27'4 8.1
2018-Apr-18 19:00N 44°02' E 008°23'5 8.8
2018-Apr-18 18:28N 43°58' E 008°18'4 8.8
2018-Apr-18 18:00N 43°55' E 008°15'45 8.0
2018-Apr-18 12:26N 43°24' E 007°31'5 8.5
2018-Apr-18 11:50N 43°21' E 007°25'4 8.6
2018-Apr-18 11:18N 43°18' E 007°21'3 8.4
2018-Apr-18 11:00N 43°16' E 007°18'5 8.0
2018-Apr-18 10:25N 43°13' E 007°14'6 6.7
2018-Apr-18 09:33N 43°09' E 007°08'0 7.1
2018-Apr-18 09:29N 43°09' E 007°07'4 7.3
2018-Apr-18 08:58N 43°11' E 007°02'86 4.8
2018-Apr-17 15:06N 43°15' E 005°05'1 6.0
2018-Apr-17 14:59N 43°15' E 005°04'3 5.9
2018-Apr-17 14:29N 43°17' E 005°01'3 5.8
2018-Apr-17 14:00N 43°19' E 004°59'3 5.8
2018-Apr-17 13:30N 43°22' E 004°58'3 6.6
2018-Apr-17 12:59N 43°24' E 004°54'4 7.7
2018-Apr-17 12:30N 43°23' E 004°48'0 0.5
2018-Apr-17 12:00N 43°23' E 004°49'0 0.2
2018-Apr-17 11:30N 43°23' E 004°48'0 0.0
2018-Apr-17 11:00N 43°23' E 004°48'0 0.0
2018-Apr-17 10:30N 43°23' E 004°48'4 7.4
2018-Apr-17 10:00N 43°25' E 004°45'4 9.0
2018-Apr-17 09:30N 43°30' E 004°44'  
2018-Apr-14 16:11N 43°26' E 004°44'1 6.4
2018-Apr-14 16:00N 43°25' E 004°45'3 5.9
2018-Apr-14 15:27N 43°23' E 004°49'0 0.7
2018-Apr-14 15:00N 43°23' E 004°48'4 7.2
2018-Apr-14 14:30N 43°24' E 004°53'4 7.5
2018-Apr-14 14:00N 43°22' E 004°58'3 5.9
2018-Apr-14 13:30N 43°19' E 004°60'3 6.5
2018-Apr-14 12:59N 43°17' E 005°02'5 6.4
2018-Apr-14 12:17N 43°14' E 005°07'3 6.6
2018-Apr-14 11:49N 43°11' E 005°10'81 8.0
2018-Apr-14 01:42N 43°14' E 007°01'2 9.1
2018-Apr-14 01:30N 43°15' E 007°03'4 8.8
2018-Apr-14 01:00N 43°18' E 007°08'4 8.7
2018-Apr-14 00:30N 43°21' E 007°12'5 9.1
2018-Apr-14 00:00N 43°24' E 007°16'5 9.6
2018-Apr-13 23:30N 43°27' E 007°22'6 9.9
2018-Apr-13 22:53N 43°30' E 007°28'51 9.5
2018-Apr-13 17:29N 44°04' E 008°22'4 8.6
2018-Apr-13 17:00N 44°07' E 008°26'4 8.9
2018-Apr-13 16:30N 44°10' E 008°30'4 8.5
2018-Apr-13 16:00N 44°15' E 008°31'4 8.3
2018-Apr-13 15:30N 44°19' E 008°31'1 0.3
2018-Apr-13 13:31N 44°19' E 008°30'0 0.0
2018-Apr-13 12:31N 44°19' E 008°30'0 0.0
2018-Apr-13 11:55N 44°19' E 008°30'0 0.0
2018-Apr-13 11:01N 44°19' E 008°30'0 0.0
2018-Apr-13 09:55N 44°19' E 008°30'0 0.0
2018-Apr-13 09:01N 44°19' E 008°30'0 0.0
2018-Apr-13 08:31N 44°19' E 008°30'0 0.0
2018-Apr-13 08:01N 44°19' E 008°30'0 0.0
2018-Apr-13 07:31N 44°19' E 008°30'0 0.0
2018-Apr-13 06:55N 44°19' E 008°30'0 0.0
2018-Apr-13 06:31N 44°19' E 008°30'0 0.0
2018-Apr-13 05:55N 44°19' E 008°30'0 0.0
2018-Apr-13 05:31N 44°19' E 008°30'0 0.0
2018-Apr-13 05:01N 44°19' E 008°30'0 0.0
2018-Apr-13 04:26N 44°19' E 008°30'1 1.7
2018-Apr-13 04:00N 44°19' E 008°31'2 4.4
2018-Apr-13 03:30N 44°17' E 008°31'3 5.4
2018-Apr-13 03:00N 44°14' E 008°31'2 4.2
2018-Apr-13 02:30N 44°12' E 008°31'2 4.0
2018-Apr-13 02:00N 44°10' E 008°30'2 4.0
2018-Apr-13 01:30N 44°08' E 008°28'2 3.7
2018-Apr-13 00:56N 44°07' E 008°26'2 4.2
2018-Apr-13 00:30N 44°05' E 008°25'2 4.6
2018-Apr-13 00:00N 44°04' E 008°23'53 4.5
2018-Apr-12 12:23N 43°34' E 007°23'3 6.1
2018-Apr-12 11:55N 43°31' E 007°21'4 6.6
2018-Apr-12 11:23N 43°28' E 007°19'5 7.1
2018-Apr-12 10:39N 43°23' E 007°16'1 7.0
2018-Apr-12 10:30N 43°22' E 007°16'3 5.9
2018-Apr-12 10:00N 43°20' E 007°13'3 5.4
2018-Apr-12 09:27N 43°19' E 007°09'3 6.1
2018-Apr-12 09:00N 43°17' E 007°06'3 6.2
2018-Apr-12 08:30N 43°15' E 007°03'88 5.3
2018-Apr-11 15:53N 43°17' E 005°02'2 5.3
2018-Apr-11 15:30N 43°18' E 005°00'2 4.9
2018-Apr-11 15:00N 43°20' E 004°58'3 5.7
2018-Apr-11 14:30N 43°23' E 004°57'3 5.9
2018-Apr-11 14:00N 43°24' E 004°53'3 5.7
2018-Apr-11 13:27N 43°23' E 004°49'0 0.1
2018-Apr-11 12:58N 43°23' E 004°48'0 0.1
2018-Apr-11 12:28N 43°23' E 004°48'0 0.0
2018-Apr-11 11:58N 43°23' E 004°48'0 0.0
2018-Apr-11 11:26N 43°23' E 004°48'0 0.0
2018-Apr-11 10:49N 43°23' E 004°48'0 0.0
2018-Apr-11 10:30N 43°23' E 004°48'0 0.0
2018-Apr-11 10:00N 43°23' E 004°48'0 0.2
2018-Apr-11 09:22N 43°23' E 004°49'3 8.0
2018-Apr-11 08:57N 43°25' E 004°45'4 9.1
2018-Apr-11 08:29N 43°29' E 004°45'  

Dump ship's entire track history